Time;durP1;ratioP1;P1;durP2;ratioP2;P2;SDS_P1;SDS_P2;PMS_P1;PMS_P2;Temp;Humidity;BMP_temperature;BMP_pressure;BME280_temperature;BME280_humidity;BME280_pressure;Samples;Min_cycle;Max_cycle;Signal;HPM_P1;HPM_P2
2023/10/26 00:00:40;;;;;;;4.40;1.83;;;10.30;99.90;;;;;;5029757;28;20052;-59
2023/10/26 00:03:07;;;;;;;1.58;1.25;;;10.30;99.90;;;;;;5044528;28;20048;-59
2023/10/26 00:05:34;;;;;;;1.77;1.10;;;10.30;99.90;;;;;;5033045;28;20051;-59
2023/10/26 00:08:00;;;;;;;1.63;1.05;;;10.30;99.90;;;;;;5039401;28;20498;-59
2023/10/26 00:10:27;;;;;;;3.65;1.00;;;10.30;99.90;;;;;;5039374;28;20037;-59
2023/10/26 00:12:54;;;;;;;1.55;0.88;;;10.30;99.90;;;;;;5035954;28;20450;-58
2023/10/26 00:15:21;;;;;;;2.20;1.10;;;10.20;99.90;;;;;;5038075;28;20360;-59
2023/10/26 00:17:48;;;;;;;1.98;1.00;;;10.30;99.90;;;;;;5043934;28;20045;-58
2023/10/26 00:20:15;;;;;;;2.15;0.93;;;10.30;99.90;;;;;;5038197;28;20038;-59
2023/10/26 00:22:41;;;;;;;2.45;1.10;;;10.30;99.90;;;;;;5038034;28;20051;-58
2023/10/26 00:25:08;;;;;;;2.10;0.98;;;10.40;99.90;;;;;;5040926;28;20045;-58
2023/10/26 00:27:40;;;;;;;3.38;1.10;;;10.40;99.90;;;;;;5036847;28;20103;-59
2023/10/26 00:30:10;;;;;;;1.33;1.13;;;10.40;99.90;;;;;;5027111;28;20221;-58
2023/10/26 00:32:37;;;;;;;1.60;0.93;;;10.40;99.90;;;;;;5038297;28;20049;-59
2023/10/26 00:35:04;;;;;;;3.42;1.13;;;10.30;99.90;;;;;;5024132;28;20490;-59
2023/10/26 00:37:31;;;;;;;3.28;1.65;;;10.30;99.90;;;;;;5039037;28;20037;-58
2023/10/26 00:39:58;;;;;;;2.20;1.55;;;10.30;99.90;;;;;;5032204;28;20696;-59
2023/10/26 00:42:25;;;;;;;1.17;1.05;;;10.40;99.90;;;;;;5023483;28;20049;-59
2023/10/26 00:44:56;;;;;;;2.28;1.35;;;10.40;99.90;;;;;;5037834;28;20044;-59
2023/10/26 00:47:25;;;;;;;1.70;1.15;;;10.40;99.90;;;;;;5039089;28;20038;-59
2023/10/26 00:49:53;;;;;;;2.03;1.25;;;10.40;99.90;;;;;;5038570;28;20121;-58
2023/10/26 00:52:22;;;;;;;3.22;1.33;;;10.40;99.90;;;;;;5016779;28;20155;-59
2023/10/26 00:54:51;;;;;;;3.88;1.48;;;10.50;99.90;;;;;;5033169;28;20087;-59
2023/10/26 00:57:21;;;;;;;2.15;1.60;;;10.50;99.90;;;;;;5014349;28;20049;-58
2023/10/26 00:59:50;;;;;;;5.28;1.38;;;10.50;99.90;;;;;;5028583;28;20103;-59
2023/10/26 01:02:18;;;;;;;4.22;1.63;;;10.40;99.90;;;;;;5024732;28;20037;-59
2023/10/26 01:04:45;;;;;;;4.22;1.30;;;10.40;99.90;;;;;;5029731;28;20068;-59
2023/10/26 01:07:12;;;;;;;1.45;1.10;;;10.30;99.90;;;;;;5024437;28;20119;-59
2023/10/26 01:09:40;;;;;;;2.75;1.17;;;10.20;99.90;;;;;;5030810;28;20064;-59
2023/10/26 01:12:07;;;;;;;1.80;1.25;;;10.10;99.90;;;;;;5014548;28;20064;-58
2023/10/26 01:14:34;;;;;;;2.30;1.35;;;10.00;99.90;;;;;;5012643;28;20047;-59
2023/10/26 01:17:01;;;;;;;1.85;1.10;;;9.90;99.90;;;;;;5014644;28;20045;-57
2023/10/26 01:19:43;;;;;;;1.92;1.00;;;9.90;99.90;;;;;;5032209;28;20044;-59
2023/10/26 01:22:10;;;;;;;2.05;1.17;;;9.90;99.90;;;;;;5025998;28;20033;-58
2023/10/26 01:24:37;;;;;;;3.28;1.77;;;9.80;99.90;;;;;;5013870;28;20057;-58
2023/10/26 01:27:04;;;;;;;3.67;2.65;;;9.80;99.90;;;;;;5031661;28;20100;-59
2023/10/26 01:29:32;;;;;;;4.82;2.45;;;9.80;99.90;;;;;;5018701;28;20061;-60
2023/10/26 01:31:59;;;;;;;2.22;1.60;;;9.80;99.90;;;;;;5032124;28;20120;-59
2023/10/26 01:34:26;;;;;;;5.10;1.95;;;9.70;99.90;;;;;;5022862;28;20498;-58
2023/10/26 01:36:53;;;;;;;3.58;1.92;;;9.70;99.90;;;;;;5014289;28;20172;-57
2023/10/26 01:39:20;;;;;;;4.72;1.92;;;9.70;99.90;;;;;;5032037;28;20060;-59
2023/10/26 01:41:47;;;;;;;2.80;2.22;;;9.60;99.90;;;;;;5014235;28;20045;-59
2023/10/26 01:44:14;;;;;;;4.88;2.03;;;9.60;99.90;;;;;;5012467;28;20133;-59
2023/10/26 01:46:40;;;;;;;3.70;2.50;;;9.50;99.90;;;;;;5013999;28;20045;-59
2023/10/26 01:49:07;;;;;;;6.82;3.28;;;9.50;99.90;;;;;;5014264;28;20245;-59
2023/10/26 01:51:34;;;;;;;4.63;2.83;;;9.60;99.90;;;;;;5026726;28;20070;-59
2023/10/26 01:54:01;;;;;;;4.57;2.72;;;9.70;99.90;;;;;;5006136;28;20461;-59
2023/10/26 01:56:30;;;;;;;5.53;3.40;;;9.70;99.90;;;;;;5031744;28;20063;-59
2023/10/26 01:58:57;;;;;;;9.63;2.85;;;9.80;99.90;;;;;;5012850;28;20503;-58
2023/10/26 02:01:24;;;;;;;;;;;9.80;99.90;;;;;;5017344;28;20410;-58
2023/10/26 02:03:51;;;;;;;6.68;3.17;;;9.80;99.90;;;;;;4995622;28;20044;-59
2023/10/26 02:06:18;;;;;;;3.22;2.50;;;9.70;99.90;;;;;;5025452;28;20045;-58
2023/10/26 02:08:45;;;;;;;5.47;2.45;;;9.70;99.90;;;;;;5009334;28;20088;-59
2023/10/26 02:11:12;;;;;;;4.03;2.35;;;9.70;99.90;;;;;;5010486;28;20443;-58
2023/10/26 02:13:40;;;;;;;4.75;1.27;;;9.70;99.90;;;;;;5010689;28;20050;-59
2023/10/26 02:16:07;;;;;;;4.95;1.27;;;9.60;99.90;;;;;;5014814;28;20412;-59
2023/10/26 02:18:34;;;;;;;;;;;9.50;99.90;;;;;;5014032;28;20156;-58
2023/10/26 02:21:01;;;;;;;1.23;0.98;;;9.50;99.90;;;;;;5031216;28;19920;-59
2023/10/26 02:23:29;;;;;;;0.75;0.65;;;9.50;99.90;;;;;;5025928;28;22671;-58
2023/10/26 02:25:56;;;;;;;1.52;0.77;;;9.50;99.90;;;;;;5013309;28;20061;-60
2023/10/26 02:28:23;;;;;;;3.70;0.90;;;9.40;99.90;;;;;;5013538;28;20069;-59
2023/10/26 02:30:50;;;;;;;0.75;0.57;;;9.40;99.90;;;;;;5013551;28;20152;-59
2023/10/26 02:33:18;;;;;;;3.50;1.00;;;9.40;99.90;;;;;;5028222;28;20100;-58
2023/10/26 02:35:45;;;;;;;1.17;0.68;;;9.40;99.90;;;;;;5021397;28;20129;-58
2023/10/26 02:38:12;;;;;;;1.73;0.75;;;9.40;99.90;;;;;;5013516;28;20048;-54
2023/10/26 02:40:39;;;;;;;4.97;0.93;;;9.30;99.90;;;;;;5026506;28;20439;-55
2023/10/26 02:43:06;;;;;;;;;;;9.30;99.90;;;;;;5014149;28;20052;-55
2023/10/26 02:45:34;;;;;;;2.13;1.20;;;9.20;99.90;;;;;;5012360;28;19931;-55
2023/10/26 02:48:02;;;;;;;2.92;0.98;;;9.20;99.90;;;;;;5030872;28;20054;-55
2023/10/26 02:50:30;;;;;;;0.63;0.52;;;9.10;99.90;;;;;;5029522;28;20041;-56
2023/10/26 02:52:58;;;;;;;1.08;0.80;;;9.10;99.90;;;;;;5026653;28;20045;-56
2023/10/26 02:55:25;;;;;;;2.70;0.80;;;9.20;99.90;;;;;;5013179;28;20045;-56
2023/10/26 02:57:52;;;;;;;0.73;0.60;;;9.20;99.90;;;;;;5031276;28;20046;-56
2023/10/26 03:00:19;;;;;;;3.30;0.70;;;9.20;99.90;;;;;;5012316;28;20034;-54
2023/10/26 03:02:47;;;;;;;0.90;0.57;;;9.20;99.90;;;;;;5013386;28;20048;-54
2023/10/26 03:05:14;;;;;;;1.10;0.90;;;9.20;99.90;;;;;;5018401;28;20046;-55
2023/10/26 03:07:45;;;;;;;;;;;9.20;99.90;;;;;;5013645;28;20136;-58
2023/10/26 03:10:12;;;;;;;3.47;2.03;;;9.20;99.90;;;;;;5012968;28;20400;-56
2023/10/26 03:12:39;;;;;;;3.38;2.08;;;9.20;99.90;;;;;;5031242;28;20053;-56
2023/10/26 03:15:06;;;;;;;3.28;2.30;;;9.20;99.90;;;;;;5022815;28;20367;-59
2023/10/26 03:17:33;;;;;;;2.42;2.00;;;9.20;99.90;;;;;;5013540;28;20442;-56
2023/10/26 03:20:00;;;;;;;2.60;1.80;;;9.20;99.90;;;;;;5012763;28;20060;-57
2023/10/26 03:22:26;;;;;;;3.70;1.55;;;9.10;99.90;;;;;;5027573;28;20045;-56
2023/10/26 03:24:53;;;;;;;1.80;1.50;;;9.10;99.90;;;;;;5009552;28;20042;-56
2023/10/26 03:27:20;;;;;;;1.70;1.55;;;9.00;99.90;;;;;;5024351;28;20386;-59
2023/10/26 03:29:47;;;;;;;7.30;2.30;;;8.90;99.90;;;;;;5034469;28;20437;-56
2023/10/26 03:32:14;;;;;;;2.15;1.63;;;8.90;99.90;;;;;;5034577;28;20112;-56
2023/10/26 03:34:40;;;;;;;1.88;1.10;;;8.90;99.90;;;;;;5015729;28;20049;-59
2023/10/26 03:37:08;;;;;;;7.32;1.63;;;9.00;99.90;;;;;;5016102;28;20119;-59
2023/10/26 03:39:35;;;;;;;;;;;9.00;99.90;;;;;;5033922;28;20040;-58
2023/10/26 03:42:02;;;;;;;3.47;1.35;;;8.90;99.90;;;;;;5033295;28;19921;-59
2023/10/26 03:44:29;;;;;;;3.38;1.20;;;8.80;99.90;;;;;;5034039;28;20434;-59
2023/10/26 03:46:56;;;;;;;1.42;1.10;;;8.80;99.90;;;;;;5034378;28;20430;-59
2023/10/26 03:49:22;;;;;;;1.20;0.90;;;8.80;99.90;;;;;;5012576;28;20046;-59
2023/10/26 03:51:49;;;;;;;1.13;1.02;;;8.80;99.90;;;;;;5030959;28;20056;-59
2023/10/26 03:54:16;;;;;;;4.57;1.10;;;8.90;99.90;;;;;;5032569;28;20132;-59
2023/10/26 03:56:44;;;;;;;4.70;1.20;;;8.90;99.90;;;;;;5014873;28;20136;-58
2023/10/26 03:59:11;;;;;;;4.47;1.00;;;8.90;99.90;;;;;;5033920;28;20049;-60
2023/10/26 04:01:38;;;;;;;1.80;0.90;;;8.90;99.90;;;;;;5033795;28;20055;-59
2023/10/26 04:04:05;;;;;;;4.38;2.20;;;8.90;99.90;;;;;;5027818;28;20116;-58
2023/10/26 04:06:31;;;;;;;3.80;2.00;;;8.90;99.90;;;;;;5033889;28;20475;-59
2023/10/26 04:08:59;;;;;;;3.50;1.42;;;8.90;99.90;;;;;;5033941;28;20115;-59
2023/10/26 04:11:25;;;;;;;1.42;1.10;;;8.90;99.90;;;;;;5032265;28;20052;-59
2023/10/26 04:13:54;;;;;;;1.90;1.48;;;8.90;99.90;;;;;;5033594;28;20046;-59
2023/10/26 04:16:21;;;;;;;1.30;1.10;;;8.90;99.90;;;;;;5033083;28;20040;-59
2023/10/26 04:18:48;;;;;;;10.52;1.40;;;8.90;99.90;;;;;;5033692;28;20069;-59
2023/10/26 04:21:15;;;;;;;6.15;2.05;;;8.90;99.90;;;;;;5031510;28;20037;-59
2023/10/26 04:23:42;;;;;;;4.03;2.65;;;8.90;99.90;;;;;;5033394;28;20066;-59
2023/10/26 04:26:11;;;;;;;3.53;2.63;;;8.90;99.90;;;;;;5032503;28;20053;-59
2023/10/26 04:28:38;;;;;;;3.55;2.60;;;8.90;99.90;;;;;;5033559;28;20483;-59
2023/10/26 04:31:17;;;;;;;3.53;2.72;;;8.90;99.90;;;;;;5032774;28;20073;-59
2023/10/26 04:33:44;;;;;;;5.38;3.05;;;8.90;99.90;;;;;;5031582;28;20045;-59
2023/10/26 04:36:11;;;;;;;4.88;2.90;;;8.90;99.90;;;;;;5014887;28;20080;-59
2023/10/26 04:38:39;;;;;;;7.70;3.42;;;8.80;99.90;;;;;;5039195;28;20116;-59
2023/10/26 04:41:05;;;;;;;;;;;8.70;99.90;;;;;;5034317;28;20146;-59
2023/10/26 04:43:32;;;;;;;5.10;2.50;;;8.60;99.90;;;;;;5032687;28;20354;-59
2023/10/26 04:45:59;;;;;;;4.18;2.35;;;8.50;99.90;;;;;;5032896;28;20560;-59
2023/10/26 04:48:26;;;;;;;4.22;2.35;;;8.50;99.90;;;;;;5015306;28;20045;-58
2023/10/26 04:50:53;;;;;;;6.93;3.00;;;8.50;99.90;;;;;;5030821;28;20050;-59
2023/10/26 04:53:20;;;;;;;6.68;2.30;;;8.40;99.90;;;;;;5032990;28;20049;-59
2023/10/26 04:55:46;;;;;;;4.03;2.05;;;8.30;99.90;;;;;;5032596;28;20049;-59
2023/10/26 04:58:13;;;;;;;4.03;1.98;;;8.40;99.90;;;;;;5029643;28;20041;-59
2023/10/26 05:00:40;;;;;;;5.35;2.28;;;8.40;99.90;;;;;;5028203;28;20038;-58
2023/10/26 05:03:07;;;;;;;2.65;1.67;;;8.50;99.90;;;;;;5022373;28;20037;-60
2023/10/26 05:05:34;;;;;;;1.55;1.33;;;8.60;99.90;;;;;;5023500;28;20045;-59
2023/10/26 05:08:01;;;;;;;0.75;0.73;;;8.60;99.90;;;;;;5016150;28;20077;-59
2023/10/26 05:10:28;;;;;;;3.15;1.17;;;8.70;99.90;;;;;;5021542;28;20487;-59
2023/10/26 05:12:54;;;;;;;3.85;1.70;;;8.70;99.90;;;;;;5028911;28;20148;-59
2023/10/26 05:15:21;;;;;;;1.67;1.00;;;8.70;99.90;;;;;;5023084;28;20041;-58
2023/10/26 05:17:48;;;;;;;2.08;1.23;;;8.70;99.90;;;;;;5032538;28;20080;-59
2023/10/26 05:20:15;;;;;;;1.92;1.20;;;8.80;99.90;;;;;;5029161;28;20046;-60
2023/10/26 05:22:42;;;;;;;1.10;0.90;;;8.80;99.90;;;;;;5032815;28;20052;-59
2023/10/26 05:25:11;;;;;;;3.15;1.80;;;8.90;99.90;;;;;;5030476;28;20044;-59
2023/10/26 05:27:38;;;;;;;5.65;2.95;;;8.90;99.90;;;;;;5032219;28;20042;-59
2023/10/26 05:30:06;;;;;;;7.28;2.55;;;9.00;99.90;;;;;;5030557;28;20579;-58
2023/10/26 05:32:33;;;;;;;4.13;2.20;;;9.10;99.90;;;;;;5009462;28;20038;-60
2023/10/26 05:35:00;;;;;;;6.50;2.47;;;9.10;99.90;;;;;;5035670;28;20037;-59
2023/10/26 05:37:27;;;;;;;3.53;2.53;;;9.00;99.90;;;;;;5029605;28;20379;-59
2023/10/26 05:39:54;;;;;;;4.28;2.25;;;9.00;99.90;;;;;;5045186;28;20051;-59
2023/10/26 05:42:21;;;;;;;4.00;1.48;;;9.00;99.90;;;;;;5032233;28;20486;-59
2023/10/26 05:44:48;;;;;;;6.47;2.40;;;9.10;99.90;;;;;;5031749;28;20037;-59
2023/10/26 05:47:15;;;;;;;5.10;2.58;;;9.00;99.90;;;;;;5028747;28;20056;-59
2023/10/26 05:49:47;;;;;;;5.88;3.28;;;9.10;99.90;;;;;;5032122;28;20045;-60
2023/10/26 05:52:15;;;;;;;8.18;3.65;;;9.10;99.90;;;;;;5031338;28;20048;-58
2023/10/26 05:54:41;;;;;;;13.88;4.50;;;9.10;99.90;;;;;;5030812;28;20041;-59
2023/10/26 05:57:09;;;;;;;6.63;4.10;;;9.10;99.90;;;;;;5031595;28;20072;-59
2023/10/26 05:59:36;;;;;;;6.40;4.60;;;9.10;99.90;;;;;;5031594;28;20041;-58
2023/10/26 06:02:02;;;;;;;6.15;4.32;;;9.10;99.90;;;;;;5031605;28;20049;-59
2023/10/26 06:04:29;;;;;;;7.85;4.63;;;9.10;99.90;;;;;;5031231;28;20486;-58
2023/10/26 06:06:56;;;;;;;11.15;5.13;;;9.20;99.90;;;;;;5031809;28;20107;-57
2023/10/26 06:09:24;;;;;;;8.63;4.05;;;9.10;99.90;;;;;;5031656;28;20125;-59
2023/10/26 06:11:51;;;;;;;5.70;3.30;;;9.20;99.90;;;;;;5026665;28;20592;-58
2023/10/26 06:14:18;;;;;;;7.70;3.25;;;9.10;99.90;;;;;;5031092;28;20072;-58
2023/10/26 06:16:45;;;;;;;5.75;3.15;;;9.10;99.90;;;;;;5028510;28;20044;-59
2023/10/26 06:19:12;;;;;;;7.57;3.80;;;9.10;99.90;;;;;;5029353;28;20045;-59
2023/10/26 06:21:39;;;;;;;7.90;3.00;;;9.00;99.90;;;;;;5022389;28;20044;-60
2023/10/26 06:24:07;;;;;;;6.57;4.10;;;9.10;99.90;;;;;;5031183;28;20051;-59
2023/10/26 06:26:34;;;;;;;6.53;3.80;;;9.10;99.90;;;;;;5034607;28;20037;-59
2023/10/26 06:29:01;;;;;;;5.65;4.13;;;9.20;99.90;;;;;;5035067;28;20115;-59
2023/10/26 06:31:28;;;;;;;4.97;3.90;;;9.20;99.90;;;;;;5022674;28;20398;-59
2023/10/26 06:33:54;;;;;;;10.80;3.72;;;9.30;99.90;;;;;;5026864;28;20056;-60
2023/10/26 06:36:21;;;;;;;14.43;3.60;;;9.40;99.90;;;;;;5030643;28;20050;-59
2023/10/26 06:38:48;;;;;;;3.47;2.92;;;9.50;99.90;;;;;;5031232;28;20068;-59
2023/10/26 06:41:15;;;;;;;3.00;2.55;;;9.60;99.90;;;;;;5039456;28;20037;-59
2023/10/26 06:43:42;;;;;;;4.13;3.20;;;9.60;99.90;;;;;;5029332;28;20037;-60
2023/10/26 06:46:09;;;;;;;6.05;4.40;;;9.70;99.90;;;;;;5031480;28;20072;-58
2023/10/26 06:48:36;;;;;;;10.02;4.35;;;9.70;99.90;;;;;;5030741;28;20140;-59
2023/10/26 06:51:04;;;;;;;4.88;3.97;;;9.80;99.90;;;;;;5031333;28;20037;-60
2023/10/26 06:53:31;;;;;;;6.97;4.97;;;9.80;99.90;;;;;;5031525;28;20128;-59
2023/10/26 06:55:58;;;;;;;8.95;3.97;;;9.80;99.90;;;;;;5027191;28;20045;-58
2023/10/26 06:58:25;;;;;;;5.15;3.63;;;9.90;99.90;;;;;;5030308;28;20050;-59
2023/10/26 07:00:52;;;;;;;5.53;4.20;;;9.90;99.90;;;;;;5030690;28;20431;-59
2023/10/26 07:03:20;;;;;;;4.55;3.08;;;9.90;99.90;;;;;;5030144;28;20041;-59
2023/10/26 07:05:47;;;;;;;3.88;3.17;;;9.90;99.90;;;;;;5032922;28;20048;-60
2023/10/26 07:08:15;;;;;;;6.82;4.70;;;10.00;99.90;;;;;;5033646;28;20073;-60
2023/10/26 07:10:43;;;;;;;6.28;4.50;;;10.20;99.90;;;;;;5026273;28;20061;-59
2023/10/26 07:13:10;;;;;;;7.18;4.70;;;10.20;99.90;;;;;;5031968;28;20107;-59
2023/10/26 07:15:36;;;;;;;10.13;4.50;;;10.20;99.90;;;;;;5033378;28;20053;-59
2023/10/26 07:18:04;;;;;;;7.40;4.00;;;10.30;99.90;;;;;;5034862;28;20045;-58
2023/10/26 07:20:32;;;;;;;5.47;3.58;;;10.40;99.90;;;;;;5018583;28;20056;-59
2023/10/26 07:22:59;;;;;;;4.25;3.22;;;10.40;99.90;;;;;;5026642;28;20034;-59
2023/10/26 07:25:25;;;;;;;3.70;2.88;;;10.50;99.90;;;;;;5015129;28;20052;-60
2023/10/26 07:27:52;;;;;;;4.40;2.75;;;10.50;99.90;;;;;;5022989;28;20050;-59
2023/10/26 07:30:19;;;;;;;3.80;2.80;;;10.50;99.90;;;;;;5013968;28;20046;-59
2023/10/26 07:32:46;;;;;;;6.68;2.58;;;10.50;99.90;;;;;;5023372;28;20068;-58
2023/10/26 07:35:16;;;;;;;3.75;2.90;;;10.60;99.90;;;;;;5026800;28;20030;-60
2023/10/26 07:37:43;;;;;;;4.45;3.05;;;10.70;99.90;;;;;;5019276;28;20379;-59
2023/10/26 07:40:23;;;;;;;5.78;2.45;;;10.80;99.90;;;;;;5007594;28;20137;-59
2023/10/26 07:42:56;;;;;;;5.05;3.30;;;11.00;99.90;;;;;;5020108;28;20042;-60
2023/10/26 07:45:25;;;;;;;;;;;11.20;99.90;;;;;;5014371;28;20218;-60
2023/10/26 07:47:52;;;;;;;4.45;2.92;;;11.30;99.90;;;;;;5013847;28;19921;-58
2023/10/26 07:50:20;;;;;;;5.15;3.90;;;11.30;99.90;;;;;;5014744;28;20053;-60
2023/10/26 07:52:47;;;;;;;9.52;3.80;;;11.30;99.90;;;;;;5016603;28;20053;-60
2023/10/26 07:55:15;;;;;;;5.63;3.83;;;11.20;99.90;;;;;;5027480;28;20120;-58
2023/10/26 07:57:42;;;;;;;4.75;4.05;;;11.20;99.90;;;;;;5025678;28;20045;-59
2023/10/26 08:00:11;;;;;;;6.18;3.95;;;11.20;99.90;;;;;;5027185;28;20049;-59
2023/10/26 08:02:38;;;;;;;8.30;5.03;;;11.30;99.90;;;;;;5026955;28;20100;-57
2023/10/26 08:05:09;;;;;;;7.65;4.45;;;11.30;99.90;;;;;;5024437;28;20041;-60
2023/10/26 08:07:37;;;;;;;12.65;4.70;;;11.30;99.90;;;;;;5026786;28;20053;-59
2023/10/26 08:10:04;;;;;;;5.70;4.00;;;11.40;99.90;;;;;;5024192;28;20049;-59
2023/10/26 08:12:31;;;;;;;;;;;11.40;99.90;;;;;;5038797;28;20107;-59
2023/10/26 08:14:58;;;;;;;7.80;4.95;;;11.50;99.90;;;;;;5033372;28;19921;-59
2023/10/26 08:17:45;;;;;;;6.03;4.32;;;11.60;99.90;;;;;;5025963;28;20100;-60
2023/10/26 08:20:13;;;;;;;6.72;4.38;;;11.60;99.90;;;;;;5029690;28;20475;-60
2023/10/26 08:22:39;;;;;;;8.15;4.65;;;11.50;99.90;;;;;;5033599;28;20121;-57
2023/10/26 08:25:07;;;;;;;10.95;5.55;;;11.60;99.90;;;;;;5023540;28;20561;-60
2023/10/26 08:27:35;;;;;;;10.80;4.68;;;11.70;99.90;;;;;;5032926;28;20079;-60
2023/10/26 08:30:06;;;;;;;6.40;4.53;;;11.70;99.90;;;;;;5039779;28;20037;-59
2023/10/26 08:32:33;;;;;;;9.48;4.97;;;11.70;99.90;;;;;;5034223;28;20495;-58
2023/10/26 08:35:00;;;;;;;;;;;11.80;99.90;;;;;;5033212;28;20156;-59
2023/10/26 08:37:28;;;;;;;9.98;5.03;;;11.80;99.90;;;;;;5033375;28;19921;-59
2023/10/26 08:39:56;;;;;;;8.68;5.13;;;11.90;99.90;;;;;;5031685;28;20117;-58
2023/10/26 08:42:23;;;;;;;5.45;4.60;;;11.90;99.90;;;;;;5030962;28;20073;-59
2023/10/26 08:44:50;;;;;;;9.50;5.82;;;11.90;99.90;;;;;;5032681;28;20044;-60
2023/10/26 08:47:19;;;;;;;7.75;5.53;;;12.00;99.90;;;;;;5032937;28;20096;-59
2023/10/26 08:49:52;;;;;;;9.20;6.25;;;12.00;99.90;;;;;;5031730;28;20077;-58
2023/10/26 08:52:40;;;;;;;8.43;5.75;;;11.90;99.90;;;;;;5027201;28;20062;-59
2023/10/26 08:55:08;;;;;;;9.07;5.72;;;11.90;99.90;;;;;;5020833;28;20050;-59
2023/10/26 08:57:50;;;;;;;9.07;6.13;;;11.80;99.90;;;;;;5017015;28;20545;-59
2023/10/26 09:00:18;;;;;;;11.57;5.78;;;11.80;99.90;;;;;;5025683;28;20041;-60
2023/10/26 09:02:47;;;;;;;10.43;5.78;;;11.70;99.90;;;;;;4995709;28;20402;-58
2023/10/26 09:05:15;;;;;;;8.57;5.22;;;11.60;99.90;;;;;;5020186;28;20486;-60
2023/10/26 09:07:42;;;;;;;;;;;11.50;99.90;;;;;;5029840;28;20052;-59
2023/10/26 09:10:09;;;;;;;11.73;5.57;;;11.40;99.90;;;;;;5012037;28;19968;-59
2023/10/26 09:12:36;;;;;;;;;;;11.40;99.90;;;;;;5012814;28;20049;-58
2023/10/26 09:15:08;;;;;;;15.38;6.45;;;11.40;99.90;;;;;;5017760;28;19925;-59
2023/10/26 09:17:35;;;;;;;13.75;6.45;;;11.50;99.90;;;;;;5013053;28;20100;-57
2023/10/26 09:20:17;;;;;;;11.52;6.03;;;11.50;99.90;;;;;;5011602;28;20045;-59
2023/10/26 09:22:44;;;;;;;6.88;5.15;;;11.60;99.90;;;;;;5012474;28;20395;-59
2023/10/26 09:25:12;;;;;;;6.93;4.70;;;11.60;99.90;;;;;;5012190;28;20113;-59
2023/10/26 09:27:41;;;;;;;7.68;5.15;;;11.60;99.90;;;;;;5015041;28;20418;-58
2023/10/26 09:30:28;;;;;;;8.15;4.80;;;11.50;99.90;;;;;;5029377;28;20080;-60
2023/10/26 09:32:59;;;;;;;6.45;4.22;;;11.50;99.90;;;;;;5024401;28;20033;-59
2023/10/26 09:35:30;;;;;;;6.07;4.05;;;11.50;99.90;;;;;;5030927;28;20037;-60
2023/10/26 09:37:58;;;;;;;9.57;4.93;;;11.50;99.90;;;;;;5046800;28;20167;-60
2023/10/26 09:40:26;;;;;;;10.15;6.10;;;11.40;99.90;;;;;;5035216;28;20112;-59
2023/10/26 09:42:56;;;;;;;10.95;6.65;;;11.40;99.90;;;;;;5031623;28;20072;-59
2023/10/26 09:45:23;;;;;;;11.23;6.63;;;11.50;99.90;;;;;;5030553;28;20506;-59
2023/10/26 09:47:49;;;;;;;9.50;6.03;;;11.50;99.90;;;;;;5030008;28;20075;-58
2023/10/26 09:50:17;;;;;;;10.13;5.97;;;11.60;99.90;;;;;;5031084;28;20048;-59
2023/10/26 09:52:44;;;;;;;8.35;6.10;;;11.70;99.90;;;;;;5030661;28;20045;-59
2023/10/26 09:55:11;;;;;;;;;;;11.90;99.90;;;;;;5031327;28;20044;-59
2023/10/26 09:58:08;;;;;;;7.53;5.43;;;12.00;99.90;;;;;;5029580;28;19928;-59
2023/10/26 10:00:35;;;;;;;5.97;5.07;;;12.10;99.90;;;;;;5030378;28;20036;-59
2023/10/26 10:03:14;;;;;;;7.57;4.80;;;12.10;99.90;;;;;;5031012;28;20096;-59
2023/10/26 10:05:42;;;;;;;7.60;5.07;;;12.10;99.90;;;;;;5028021;28;20052;-60
2023/10/26 10:08:10;;;;;;;8.25;6.20;;;12.20;99.90;;;;;;5030764;28;20137;-60
2023/10/26 10:10:57;;;;;;;11.23;6.47;;;12.10;99.90;;;;;;5030166;28;20050;-59
2023/10/26 10:13:36;;;;;;;10.43;6.82;;;12.00;99.90;;;;;;5026268;28;20048;-58
2023/10/26 10:16:03;;;;;;;9.88;6.45;;;12.00;99.90;;;;;;4998226;28;20144;-60
2023/10/26 10:18:30;;;;;;;10.88;7.20;;;11.90;99.90;;;;;;5030586;28;20049;-59
2023/10/26 10:20:57;;;;;;;9.25;6.75;;;11.80;99.90;;;;;;5025826;28;20117;-59
2023/10/26 10:23:32;;;;;;;12.40;8.02;;;11.90;99.90;;;;;;5027109;28;20041;-59
2023/10/26 10:26:00;;;;;;;11.48;7.82;;;11.90;99.90;;;;;;5022618;28;20044;-59
2023/10/26 10:28:42;;;;;;;11.43;7.78;;;11.90;99.90;;;;;;5027322;28;20421;-59
2023/10/26 10:31:10;;;;;;;9.43;7.07;;;11.90;99.90;;;;;;5029477;28;20039;-60
2023/10/26 10:33:40;;;;;;;11.40;7.82;;;11.90;99.90;;;;;;5030280;28;20052;-59
2023/10/26 10:36:08;;;;;;;11.30;7.80;;;11.80;99.90;;;;;;5028007;28;20037;-60
2023/10/26 10:38:35;;;;;;;11.60;7.70;;;11.90;99.90;;;;;;5012224;28;20033;-59
2023/10/26 10:41:02;;;;;;;9.27;6.70;;;11.90;99.90;;;;;;5033735;28;20061;-59
2023/10/26 10:43:45;;;;;;;8.57;6.10;;;11.80;99.90;;;;;;5031567;28;20046;-59
2023/10/26 10:46:25;;;;;;;13.13;8.07;;;11.90;99.90;;;;;;5033345;28;20033;-60
2023/10/26 10:49:03;;;;;;;10.27;7.10;;;12.10;99.90;;;;;;5030906;28;20461;-59
2023/10/26 10:51:32;;;;;;;10.82;6.80;;;12.20;99.90;;;;;;5031203;28;20065;-60
2023/10/26 10:54:00;;;;;;;9.00;5.93;;;12.30;99.90;;;;;;5030224;28;20116;-59
2023/10/26 10:56:47;;;;;;;9.52;5.95;;;12.30;99.90;;;;;;5027904;28;20041;-59
2023/10/26 10:59:25;;;;;;;9.50;5.72;;;12.40;99.90;;;;;;5029179;28;20038;-59
2023/10/26 11:02:12;;;;;;;7.82;5.82;;;12.40;99.90;;;;;;5029882;28;20052;-58
2023/10/26 11:04:52;;;;;;;9.32;6.10;;;12.50;99.90;;;;;;5029736;28;20099;-60
2023/10/26 11:07:32;;;;;;;7.70;6.15;;;12.40;99.90;;;;;;5029022;28;20037;-59
2023/10/26 11:10:02;;;;;;;9.35;6.10;;;12.40;99.90;;;;;;5030707;28;20045;-60
2023/10/26 11:12:29;;;;;;;8.77;5.95;;;12.40;99.90;;;;;;5028956;28;20498;-60
2023/10/26 11:14:56;;;;;;;9.85;6.35;;;12.60;99.90;;;;;;5029158;28;20049;-58
2023/10/26 11:17:24;;;;;;;;;;;12.80;99.90;;;;;;5027580;28;20124;-60
2023/10/26 11:19:51;;;;;;;7.38;5.00;;;13.10;99.90;;;;;;5027821;28;19925;-58
2023/10/26 11:22:18;;;;;;;6.35;4.82;;;13.30;99.90;;;;;;5029192;28;20533;-60
2023/10/26 11:24:46;;;;;;;6.18;4.22;;;13.50;99.90;;;;;;5027451;28;20030;-59
2023/10/26 11:27:14;;;;;;;;;;;13.60;99.90;;;;;;5028106;28;20049;-60
2023/10/26 11:29:41;;;;;;;5.87;4.33;;;13.60;99.90;;;;;;5027074;28;19920;-60
2023/10/26 11:32:25;;;;;;;7.03;4.78;;;13.60;99.90;;;;;;5030319;28;20045;-59
2023/10/26 11:35:09;;;;;;;6.50;4.65;;;13.60;99.90;;;;;;5027456;28;20061;-59
2023/10/26 11:37:39;;;;;;;5.15;4.28;;;13.60;99.90;;;;;;5026274;28;20494;-61
2023/10/26 11:40:07;;;;;;;5.82;4.55;;;13.70;99.90;;;;;;5025600;28;20495;-58
2023/10/26 11:43:00;;;;;;;5.97;4.72;;;13.70;99.90;;;;;;5028862;28;20083;-60
2023/10/26 11:45:28;;;;;;;6.60;4.78;;;13.80;99.90;;;;;;5027675;28;20042;-60
2023/10/26 11:48:00;;;;;;;10.93;5.80;;;13.80;99.90;;;;;;5027635;28;20042;-60
2023/10/26 11:50:29;;;;;;;9.63;6.10;;;14.00;99.90;;;;;;5026326;28;20471;-59
2023/10/26 11:53:01;;;;;;;8.65;5.70;;;14.00;99.90;;;;;;5027243;28;20136;-60
2023/10/26 11:55:31;;;;;;;7.53;5.13;;;14.20;99.90;;;;;;5029971;28;20103;-59
2023/10/26 11:58:00;;;;;;;7.50;5.68;;;14.30;99.90;;;;;;4992515;28;1044701;-59
2023/10/26 12:00:28;;;;;;;9.68;5.15;;;14.30;99.90;;;;;;5030006;28;20108;-58
2023/10/26 12:02:56;;;;;;;6.25;4.45;;;14.40;99.90;;;;;;5028569;28;20144;-59
2023/10/26 12:05:24;;;;;;;7.35;4.20;;;14.30;99.90;;;;;;5030237;28;20670;-60
2023/10/26 12:07:52;;;;;;;4.93;4.20;;;14.20;99.90;;;;;;5029764;28;20033;-59
2023/10/26 12:10:20;;;;;;;6.38;4.40;;;14.00;99.90;;;;;;5032724;28;20120;-59
2023/10/26 12:12:50;;;;;;;8.93;4.53;;;14.00;99.90;;;;;;5031203;28;20390;-59
2023/10/26 12:15:19;;;;;;;7.47;5.05;;;14.20;99.90;;;;;;5030248;28;20079;-59
2023/10/26 12:17:46;;;;;;;6.35;4.20;;;14.40;99.90;;;;;;5031526;28;20073;-58
2023/10/26 12:20:13;;;;;;;;;;;14.70;99.90;;;;;;5033278;28;20061;-59
2023/10/26 12:22:41;;;;;;;6.20;4.28;;;14.80;99.90;;;;;;5029033;28;19925;-59
2023/10/26 12:25:10;;;;;;;7.72;3.92;;;14.80;99.90;;;;;;5031846;28;20409;-59
2023/10/26 12:27:38;;;;;;;5.00;3.65;;;14.80;99.90;;;;;;5030365;28;20079;-60
2023/10/26 12:30:25;;;;;;;8.50;5.80;;;14.70;99.90;;;;;;5029749;28;20438;-60
2023/10/26 12:32:52;;;;;;;9.23;4.65;;;14.80;99.90;;;;;;5029729;28;20037;-59
2023/10/26 12:35:20;;;;;;;6.82;4.18;;;14.80;99.90;;;;;;5026385;28;20510;-58
2023/10/26 12:37:47;;;;;;;5.45;3.78;;;14.80;99.90;;;;;;5027423;28;20490;-60
2023/10/26 12:40:13;;;;;;;5.43;4.20;;;14.90;99.90;;;;;;5027724;28;20055;-59
2023/10/26 12:42:41;;;;;;;5.53;4.07;;;15.00;99.90;;;;;;5029732;28;20052;-59
2023/10/26 12:45:08;;;;;;;10.25;4.93;;;15.10;99.90;;;;;;5027814;28;20049;-59
2023/10/26 12:47:35;;;;;;;7.28;4.60;;;15.10;99.90;;;;;;5028051;28;20491;-60
2023/10/26 12:50:02;;;;;;;6.07;4.32;;;15.00;99.90;;;;;;5027379;28;20041;-58
2023/10/26 12:52:30;;;;;;;5.28;3.88;;;15.10;99.90;;;;;;5027716;28;20095;-60
2023/10/26 12:54:57;;;;;;;13.95;7.13;;;15.00;99.90;;;;;;5027587;28;20137;-60
2023/10/26 12:57:24;;;;;;;20.17;11.13;;;15.10;99.90;;;;;;5027830;28;20613;-60
2023/10/26 12:59:50;;;;;;;9.27;5.35;;;15.10;99.90;;;;;;5028482;28;20045;-60